sensor_id;sensor_type;location;lat;lon;timestamp;P1;durP1;ratioP1;P2;durP2;ratioP2
6858;SDS011;3468;42.824;23.240;2024-03-02T00:00:52;49.43;;;21.67;;
6858;SDS011;3468;42.824;23.240;2024-03-02T00:03:19;45.13;;;20.93;;
6858;SDS011;3468;42.824;23.240;2024-03-02T00:05:50;44.13;;;22.17;;
6858;SDS011;3468;42.824;23.240;2024-03-02T00:08:20;53.70;;;21.10;;
6858;SDS011;3468;42.824;23.240;2024-03-02T00:10:50;45.93;;;22.33;;
6858;SDS011;3468;42.824;23.240;2024-03-02T00:13:18;44.97;;;20.13;;
6858;SDS011;3468;42.824;23.240;2024-03-02T00:15:48;47.30;;;22.30;;
6858;SDS011;3468;42.824;23.240;2024-03-02T00:18:18;47.00;;;20.70;;
6858;SDS011;3468;42.824;23.240;2024-03-02T00:20:46;49.17;;;21.80;;
6858;SDS011;3468;42.824;23.240;2024-03-02T00:23:15;46.50;;;21.17;;
6858;SDS011;3468;42.824;23.240;2024-03-02T00:25:44;46.77;;;20.63;;
6858;SDS011;3468;42.824;23.240;2024-03-02T00:28:13;52.97;;;21.50;;
6858;SDS011;3468;42.824;23.240;2024-03-02T00:30:52;50.40;;;23.33;;
6858;SDS011;3468;42.824;23.240;2024-03-02T00:33:22;46.97;;;21.10;;
6858;SDS011;3468;42.824;23.240;2024-03-02T00:35:50;48.77;;;21.77;;
6858;SDS011;3468;42.824;23.240;2024-03-02T00:38:18;44.87;;;20.77;;
6858;SDS011;3468;42.824;23.240;2024-03-02T00:40:45;42.27;;;19.20;;
6858;SDS011;3468;42.824;23.240;2024-03-02T00:43:18;41.17;;;18.83;;
6858;SDS011;3468;42.824;23.240;2024-03-02T00:46:12;46.17;;;21.00;;
6858;SDS011;3468;42.824;23.240;2024-03-02T00:48:41;43.30;;;20.20;;
6858;SDS011;3468;42.824;23.240;2024-03-02T00:51:22;41.10;;;19.90;;
6858;SDS011;3468;42.824;23.240;2024-03-02T00:53:52;45.07;;;21.27;;
6858;SDS011;3468;42.824;23.240;2024-03-02T00:56:21;43.07;;;19.80;;
6858;SDS011;3468;42.824;23.240;2024-03-02T00:58:49;41.00;;;20.00;;
6858;SDS011;3468;42.824;23.240;2024-03-02T01:01:16;47.17;;;19.03;;
6858;SDS011;3468;42.824;23.240;2024-03-02T01:03:43;48.93;;;19.00;;
6858;SDS011;3468;42.824;23.240;2024-03-02T01:06:09;47.17;;;20.47;;
6858;SDS011;3468;42.824;23.240;2024-03-02T01:08:36;50.83;;;22.07;;
6858;SDS011;3468;42.824;23.240;2024-03-02T01:11:04;47.47;;;19.27;;
6858;SDS011;3468;42.824;23.240;2024-03-02T01:13:31;45.97;;;19.80;;
6858;SDS011;3468;42.824;23.240;2024-03-02T01:15:58;45.10;;;20.73;;
6858;SDS011;3468;42.824;23.240;2024-03-02T01:18:26;43.03;;;20.90;;
6858;SDS011;3468;42.824;23.240;2024-03-02T01:20:52;45.50;;;19.67;;
6858;SDS011;3468;42.824;23.240;2024-03-02T01:23:21;44.83;;;20.27;;
6858;SDS011;3468;42.824;23.240;2024-03-02T01:25:47;44.50;;;19.50;;
6858;SDS011;3468;42.824;23.240;2024-03-02T01:28:15;49.00;;;20.43;;
6858;SDS011;3468;42.824;23.240;2024-03-02T01:30:42;48.57;;;20.30;;
6858;SDS011;3468;42.824;23.240;2024-03-02T01:33:09;44.60;;;21.87;;
6858;SDS011;3468;42.824;23.240;2024-03-02T01:35:36;51.73;;;20.97;;
6858;SDS011;3468;42.824;23.240;2024-03-02T01:38:03;47.30;;;21.53;;
6858;SDS011;3468;42.824;23.240;2024-03-02T01:40:31;44.70;;;20.67;;
6858;SDS011;3468;42.824;23.240;2024-03-02T01:42:58;49.27;;;21.20;;
6858;SDS011;3468;42.824;23.240;2024-03-02T01:45:26;50.47;;;21.77;;
6858;SDS011;3468;42.824;23.240;2024-03-02T01:47:53;54.37;;;20.57;;
6858;SDS011;3468;42.824;23.240;2024-03-02T01:50:24;49.13;;;22.40;;
6858;SDS011;3468;42.824;23.240;2024-03-02T01:52:51;49.53;;;21.57;;
6858;SDS011;3468;42.824;23.240;2024-03-02T01:55:18;50.17;;;22.23;;
6858;SDS011;3468;42.824;23.240;2024-03-02T01:57:45;46.87;;;21.67;;
6858;SDS011;3468;42.824;23.240;2024-03-02T02:00:13;54.90;;;21.83;;
6858;SDS011;3468;42.824;23.240;2024-03-02T02:02:41;45.47;;;19.67;;
6858;SDS011;3468;42.824;23.240;2024-03-02T02:05:08;47.50;;;22.07;;
6858;SDS011;3468;42.824;23.240;2024-03-02T02:07:35;43.83;;;21.20;;
6858;SDS011;3468;42.824;23.240;2024-03-02T02:10:02;45.73;;;20.37;;
6858;SDS011;3468;42.824;23.240;2024-03-02T02:12:29;49.43;;;20.67;;
6858;SDS011;3468;42.824;23.240;2024-03-02T02:14:56;43.50;;;19.77;;
6858;SDS011;3468;42.824;23.240;2024-03-02T02:17:23;44.63;;;20.97;;
6858;SDS011;3468;42.824;23.240;2024-03-02T02:19:51;44.83;;;20.17;;
6858;SDS011;3468;42.824;23.240;2024-03-02T02:22:19;43.63;;;19.47;;
6858;SDS011;3468;42.824;23.240;2024-03-02T02:24:45;42.90;;;20.40;;
6858;SDS011;3468;42.824;23.240;2024-03-02T02:27:12;41.97;;;19.53;;
6858;SDS011;3468;42.824;23.240;2024-03-02T02:29:40;42.73;;;20.13;;
6858;SDS011;3468;42.824;23.240;2024-03-02T02:32:07;42.90;;;19.47;;
6858;SDS011;3468;42.824;23.240;2024-03-02T02:34:33;42.93;;;20.57;;
6858;SDS011;3468;42.824;23.240;2024-03-02T02:37:00;43.17;;;20.13;;
6858;SDS011;3468;42.824;23.240;2024-03-02T02:39:28;46.50;;;21.10;;
6858;SDS011;3468;42.824;23.240;2024-03-02T02:41:55;45.77;;;20.80;;
6858;SDS011;3468;42.824;23.240;2024-03-02T02:44:22;43.27;;;20.23;;
6858;SDS011;3468;42.824;23.240;2024-03-02T02:46:49;43.10;;;20.07;;
6858;SDS011;3468;42.824;23.240;2024-03-02T02:49:15;45.73;;;20.27;;
6858;SDS011;3468;42.824;23.240;2024-03-02T02:51:42;39.50;;;18.70;;
6858;SDS011;3468;42.824;23.240;2024-03-02T02:54:09;45.50;;;18.93;;
6858;SDS011;3468;42.824;23.240;2024-03-02T02:56:37;38.23;;;18.70;;
6858;SDS011;3468;42.824;23.240;2024-03-02T02:59:03;51.00;;;20.67;;
6858;SDS011;3468;42.824;23.240;2024-03-02T03:01:30;44.80;;;19.13;;
6858;SDS011;3468;42.824;23.240;2024-03-02T03:03:57;41.43;;;19.53;;
6858;SDS011;3468;42.824;23.240;2024-03-02T03:06:24;42.07;;;17.87;;
6858;SDS011;3468;42.824;23.240;2024-03-02T03:08:50;42.60;;;19.03;;
6858;SDS011;3468;42.824;23.240;2024-03-02T03:11:17;45.27;;;18.40;;
6858;SDS011;3468;42.824;23.240;2024-03-02T03:13:45;41.93;;;18.10;;
6858;SDS011;3468;42.824;23.240;2024-03-02T03:16:13;40.23;;;18.37;;
6858;SDS011;3468;42.824;23.240;2024-03-02T03:18:40;39.57;;;17.33;;
6858;SDS011;3468;42.824;23.240;2024-03-02T03:21:06;38.17;;;18.53;;
6858;SDS011;3468;42.824;23.240;2024-03-02T03:23:33;40.37;;;18.53;;
6858;SDS011;3468;42.824;23.240;2024-03-02T03:26:00;42.73;;;18.53;;
6858;SDS011;3468;42.824;23.240;2024-03-02T03:28:27;42.70;;;18.97;;
6858;SDS011;3468;42.824;23.240;2024-03-02T03:30:55;45.23;;;19.57;;
6858;SDS011;3468;42.824;23.240;2024-03-02T03:33:21;35.83;;;18.43;;
6858;SDS011;3468;42.824;23.240;2024-03-02T03:35:48;40.87;;;19.80;;
6858;SDS011;3468;42.824;23.240;2024-03-02T03:38:15;38.83;;;18.07;;
6858;SDS011;3468;42.824;23.240;2024-03-02T03:40:41;39.80;;;18.83;;
6858;SDS011;3468;42.824;23.240;2024-03-02T03:43:09;47.30;;;19.47;;
6858;SDS011;3468;42.824;23.240;2024-03-02T03:45:35;40.07;;;19.10;;
6858;SDS011;3468;42.824;23.240;2024-03-02T03:48:04;35.97;;;17.77;;
6858;SDS011;3468;42.824;23.240;2024-03-02T03:50:31;40.13;;;17.90;;
6858;SDS011;3468;42.824;23.240;2024-03-02T03:52:57;41.33;;;17.90;;
6858;SDS011;3468;42.824;23.240;2024-03-02T03:55:24;39.50;;;17.93;;
6858;SDS011;3468;42.824;23.240;2024-03-02T03:57:51;40.33;;;19.17;;
6858;SDS011;3468;42.824;23.240;2024-03-02T04:00:18;37.20;;;18.67;;
6858;SDS011;3468;42.824;23.240;2024-03-02T04:02:45;42.40;;;18.77;;
6858;SDS011;3468;42.824;23.240;2024-03-02T04:05:13;38.13;;;19.33;;
6858;SDS011;3468;42.824;23.240;2024-03-02T04:07:39;37.40;;;18.20;;
6858;SDS011;3468;42.824;23.240;2024-03-02T04:10:08;40.70;;;19.17;;
6858;SDS011;3468;42.824;23.240;2024-03-02T04:12:37;42.63;;;19.10;;
6858;SDS011;3468;42.824;23.240;2024-03-02T04:15:04;40.23;;;17.90;;
6858;SDS011;3468;42.824;23.240;2024-03-02T04:17:32;36.53;;;19.80;;
6858;SDS011;3468;42.824;23.240;2024-03-02T04:20:00;39.77;;;20.37;;
6858;SDS011;3468;42.824;23.240;2024-03-02T04:22:32;44.47;;;20.23;;
6858;SDS011;3468;42.824;23.240;2024-03-02T04:25:00;43.03;;;19.10;;
6858;SDS011;3468;42.824;23.240;2024-03-02T04:27:29;45.60;;;18.60;;
6858;SDS011;3468;42.824;23.240;2024-03-02T04:29:56;48.90;;;19.57;;
6858;SDS011;3468;42.824;23.240;2024-03-02T04:32:23;46.60;;;19.27;;
6858;SDS011;3468;42.824;23.240;2024-03-02T04:34:50;40.50;;;20.17;;
6858;SDS011;3468;42.824;23.240;2024-03-02T04:37:16;43.97;;;19.17;;
6858;SDS011;3468;42.824;23.240;2024-03-02T04:39:44;40.17;;;18.97;;
6858;SDS011;3468;42.824;23.240;2024-03-02T04:42:11;42.87;;;19.70;;
6858;SDS011;3468;42.824;23.240;2024-03-02T04:44:38;45.30;;;19.80;;
6858;SDS011;3468;42.824;23.240;2024-03-02T04:47:05;43.87;;;20.73;;
6858;SDS011;3468;42.824;23.240;2024-03-02T04:49:32;41.80;;;20.77;;
6858;SDS011;3468;42.824;23.240;2024-03-02T04:51:58;46.00;;;19.63;;
6858;SDS011;3468;42.824;23.240;2024-03-02T04:54:25;45.10;;;19.57;;
6858;SDS011;3468;42.824;23.240;2024-03-02T04:56:53;42.77;;;19.73;;
6858;SDS011;3468;42.824;23.240;2024-03-02T04:59:20;45.13;;;20.07;;
6858;SDS011;3468;42.824;23.240;2024-03-02T05:01:47;45.20;;;20.93;;
6858;SDS011;3468;42.824;23.240;2024-03-02T05:04:13;42.13;;;20.27;;
6858;SDS011;3468;42.824;23.240;2024-03-02T05:06:40;50.37;;;21.03;;
6858;SDS011;3468;42.824;23.240;2024-03-02T05:09:07;44.37;;;20.43;;
6858;SDS011;3468;42.824;23.240;2024-03-02T05:11:34;48.47;;;21.37;;
6858;SDS011;3468;42.824;23.240;2024-03-02T05:14:16;44.23;;;20.03;;
6858;SDS011;3468;42.824;23.240;2024-03-02T05:16:43;48.20;;;21.80;;
6858;SDS011;3468;42.824;23.240;2024-03-02T05:19:09;46.90;;;21.07;;
6858;SDS011;3468;42.824;23.240;2024-03-02T05:21:35;42.33;;;19.67;;
6858;SDS011;3468;42.824;23.240;2024-03-02T05:24:02;42.70;;;21.77;;
6858;SDS011;3468;42.824;23.240;2024-03-02T05:26:29;41.67;;;20.73;;
6858;SDS011;3468;42.824;23.240;2024-03-02T05:28:56;42.60;;;19.87;;
6858;SDS011;3468;42.824;23.240;2024-03-02T05:31:26;45.30;;;20.97;;
6858;SDS011;3468;42.824;23.240;2024-03-02T05:33:53;47.83;;;23.33;;
6858;SDS011;3468;42.824;23.240;2024-03-02T05:36:20;47.63;;;21.10;;
6858;SDS011;3468;42.824;23.240;2024-03-02T05:38:47;50.33;;;21.70;;
6858;SDS011;3468;42.824;23.240;2024-03-02T05:41:13;44.40;;;20.83;;
6858;SDS011;3468;42.824;23.240;2024-03-02T05:43:40;40.40;;;19.03;;
6858;SDS011;3468;42.824;23.240;2024-03-02T05:46:07;45.47;;;21.00;;
6858;SDS011;3468;42.824;23.240;2024-03-02T05:48:35;44.77;;;19.63;;
6858;SDS011;3468;42.824;23.240;2024-03-02T05:51:02;48.90;;;19.70;;
6858;SDS011;3468;42.824;23.240;2024-03-02T05:53:29;39.87;;;19.60;;
6858;SDS011;3468;42.824;23.240;2024-03-02T05:55:56;51.30;;;20.30;;
6858;SDS011;3468;42.824;23.240;2024-03-02T05:58:23;50.30;;;21.93;;
6858;SDS011;3468;42.824;23.240;2024-03-02T06:01:02;48.63;;;20.00;;
6858;SDS011;3468;42.824;23.240;2024-03-02T06:03:29;49.00;;;21.27;;
6858;SDS011;3468;42.824;23.240;2024-03-02T06:05:58;47.80;;;21.67;;
6858;SDS011;3468;42.824;23.240;2024-03-02T06:08:24;42.30;;;20.13;;
6858;SDS011;3468;42.824;23.240;2024-03-02T06:10:51;53.00;;;21.87;;
6858;SDS011;3468;42.824;23.240;2024-03-02T06:13:18;52.17;;;22.77;;
6858;SDS011;3468;42.824;23.240;2024-03-02T06:15:44;48.47;;;22.33;;
6858;SDS011;3468;42.824;23.240;2024-03-02T06:18:11;48.50;;;21.33;;
6858;SDS011;3468;42.824;23.240;2024-03-02T06:20:38;50.00;;;20.63;;
6858;SDS011;3468;42.824;23.240;2024-03-02T06:23:06;47.87;;;22.40;;
6858;SDS011;3468;42.824;23.240;2024-03-02T06:25:33;55.30;;;21.83;;
6858;SDS011;3468;42.824;23.240;2024-03-02T06:28:00;49.33;;;21.13;;
6858;SDS011;3468;42.824;23.240;2024-03-02T06:30:26;46.50;;;21.63;;
6858;SDS011;3468;42.824;23.240;2024-03-02T06:32:53;47.93;;;22.03;;
6858;SDS011;3468;42.824;23.240;2024-03-02T06:35:20;46.30;;;21.43;;
6858;SDS011;3468;42.824;23.240;2024-03-02T06:37:46;52.43;;;21.37;;
6858;SDS011;3468;42.824;23.240;2024-03-02T06:40:14;57.57;;;23.13;;
6858;SDS011;3468;42.824;23.240;2024-03-02T06:42:41;54.73;;;21.83;;
6858;SDS011;3468;42.824;23.240;2024-03-02T06:45:08;52.67;;;21.73;;
6858;SDS011;3468;42.824;23.240;2024-03-02T06:47:35;53.00;;;22.77;;
6858;SDS011;3468;42.824;23.240;2024-03-02T06:50:02;51.13;;;20.63;;
6858;SDS011;3468;42.824;23.240;2024-03-02T06:52:29;51.67;;;22.30;;
6858;SDS011;3468;42.824;23.240;2024-03-02T06:54:55;54.40;;;22.37;;
6858;SDS011;3468;42.824;23.240;2024-03-02T06:57:23;52.80;;;21.20;;
6858;SDS011;3468;42.824;23.240;2024-03-02T06:59:50;49.23;;;20.50;;
6858;SDS011;3468;42.824;23.240;2024-03-02T07:02:19;50.63;;;20.83;;
6858;SDS011;3468;42.824;23.240;2024-03-02T07:04:48;48.87;;;21.50;;
6858;SDS011;3468;42.824;23.240;2024-03-02T07:07:16;46.17;;;20.47;;
6858;SDS011;3468;42.824;23.240;2024-03-02T07:09:43;50.00;;;20.93;;
6858;SDS011;3468;42.824;23.240;2024-03-02T07:12:09;49.20;;;20.53;;
6858;SDS011;3468;42.824;23.240;2024-03-02T07:14:38;48.53;;;20.97;;
6858;SDS011;3468;42.824;23.240;2024-03-02T07:17:22;49.20;;;20.30;;
6858;SDS011;3468;42.824;23.240;2024-03-02T07:19:48;50.83;;;21.00;;
6858;SDS011;3468;42.824;23.240;2024-03-02T07:22:15;46.00;;;19.77;;
6858;SDS011;3468;42.824;23.240;2024-03-02T07:24:43;55.77;;;22.40;;
6858;SDS011;3468;42.824;23.240;2024-03-02T07:27:11;46.07;;;21.03;;
6858;SDS011;3468;42.824;23.240;2024-03-02T07:29:39;45.10;;;19.33;;
6858;SDS011;3468;42.824;23.240;2024-03-02T07:32:07;49.57;;;20.10;;
6858;SDS011;3468;42.824;23.240;2024-03-02T07:34:34;56.97;;;22.53;;
6858;SDS011;3468;42.824;23.240;2024-03-02T07:37:01;53.00;;;21.50;;
6858;SDS011;3468;42.824;23.240;2024-03-02T07:39:28;44.77;;;18.53;;
6858;SDS011;3468;42.824;23.240;2024-03-02T07:41:55;48.40;;;19.97;;
6858;SDS011;3468;42.824;23.240;2024-03-02T07:44:22;43.37;;;19.87;;
6858;SDS011;3468;42.824;23.240;2024-03-02T07:46:50;45.47;;;19.80;;
6858;SDS011;3468;42.824;23.240;2024-03-02T07:49:17;43.47;;;19.27;;
6858;SDS011;3468;42.824;23.240;2024-03-02T07:51:45;43.10;;;18.70;;
6858;SDS011;3468;42.824;23.240;2024-03-02T07:54:11;45.20;;;19.23;;
6858;SDS011;3468;42.824;23.240;2024-03-02T07:56:38;39.13;;;17.53;;
6858;SDS011;3468;42.824;23.240;2024-03-02T07:59:05;44.73;;;19.67;;
6858;SDS011;3468;42.824;23.240;2024-03-02T08:01:33;43.30;;;17.67;;
6858;SDS011;3468;42.824;23.240;2024-03-02T08:04:01;44.37;;;17.73;;
6858;SDS011;3468;42.824;23.240;2024-03-02T08:06:29;40.47;;;18.50;;
6858;SDS011;3468;42.824;23.240;2024-03-02T08:08:56;38.23;;;18.17;;
6858;SDS011;3468;42.824;23.240;2024-03-02T08:11:23;39.00;;;18.30;;
6858;SDS011;3468;42.824;23.240;2024-03-02T08:13:50;41.63;;;18.67;;
6858;SDS011;3468;42.824;23.240;2024-03-02T08:16:17;37.60;;;17.03;;
6858;SDS011;3468;42.824;23.240;2024-03-02T08:18:45;33.57;;;16.73;;
6858;SDS011;3468;42.824;23.240;2024-03-02T08:21:13;37.63;;;18.00;;
6858;SDS011;3468;42.824;23.240;2024-03-02T08:23:40;42.13;;;18.77;;
6858;SDS011;3468;42.824;23.240;2024-03-02T08:26:07;37.50;;;17.00;;
6858;SDS011;3468;42.824;23.240;2024-03-02T08:28:34;42.77;;;19.00;;
6858;SDS011;3468;42.824;23.240;2024-03-02T08:31:02;44.63;;;20.07;;
6858;SDS011;3468;42.824;23.240;2024-03-02T08:33:29;40.00;;;17.13;;
6858;SDS011;3468;42.824;23.240;2024-03-02T08:35:56;39.00;;;18.53;;
6858;SDS011;3468;42.824;23.240;2024-03-02T08:38:24;35.43;;;16.70;;
6858;SDS011;3468;42.824;23.240;2024-03-02T08:40:51;44.93;;;18.63;;
6858;SDS011;3468;42.824;23.240;2024-03-02T08:43:18;39.93;;;18.40;;
6858;SDS011;3468;42.824;23.240;2024-03-02T08:45:47;45.37;;;19.73;;
6858;SDS011;3468;42.824;23.240;2024-03-02T08:48:15;43.50;;;18.73;;
6858;SDS011;3468;42.824;23.240;2024-03-02T08:50:42;40.23;;;17.13;;
6858;SDS011;3468;42.824;23.240;2024-03-02T08:53:09;38.33;;;18.83;;
6858;SDS011;3468;42.824;23.240;2024-03-02T08:55:37;39.90;;;17.50;;
6858;SDS011;3468;42.824;23.240;2024-03-02T08:58:04;37.80;;;15.90;;
6858;SDS011;3468;42.824;23.240;2024-03-02T09:00:31;39.83;;;18.27;;
6858;SDS011;3468;42.824;23.240;2024-03-02T09:02:59;42.67;;;18.07;;
6858;SDS011;3468;42.824;23.240;2024-03-02T09:05:26;45.93;;;18.03;;
6858;SDS011;3468;42.824;23.240;2024-03-02T09:07:52;44.47;;;19.90;;
6858;SDS011;3468;42.824;23.240;2024-03-02T09:10:19;41.57;;;18.17;;
6858;SDS011;3468;42.824;23.240;2024-03-02T09:12:47;41.00;;;18.40;;
6858;SDS011;3468;42.824;23.240;2024-03-02T09:15:15;40.00;;;17.73;;
6858;SDS011;3468;42.824;23.240;2024-03-02T09:17:42;41.40;;;18.90;;
6858;SDS011;3468;42.824;23.240;2024-03-02T09:20:11;44.53;;;19.63;;
6858;SDS011;3468;42.824;23.240;2024-03-02T09:22:39;39.27;;;17.63;;
6858;SDS011;3468;42.824;23.240;2024-03-02T09:25:07;41.87;;;18.67;;
6858;SDS011;3468;42.824;23.240;2024-03-02T09:27:35;43.67;;;19.60;;
6858;SDS011;3468;42.824;23.240;2024-03-02T09:30:04;37.87;;;16.57;;
6858;SDS011;3468;42.824;23.240;2024-03-02T09:32:33;41.93;;;19.30;;
6858;SDS011;3468;42.824;23.240;2024-03-02T09:35:00;46.43;;;19.13;;
6858;SDS011;3468;42.824;23.240;2024-03-02T09:37:27;40.00;;;17.63;;
6858;SDS011;3468;42.824;23.240;2024-03-02T09:39:54;36.83;;;17.63;;
6858;SDS011;3468;42.824;23.240;2024-03-02T09:42:20;38.03;;;17.23;;
6858;SDS011;3468;42.824;23.240;2024-03-02T09:44:47;35.03;;;16.27;;
6858;SDS011;3468;42.824;23.240;2024-03-02T09:47:16;37.37;;;15.70;;
6858;SDS011;3468;42.824;23.240;2024-03-02T09:49:42;38.83;;;17.40;;
6858;SDS011;3468;42.824;23.240;2024-03-02T09:52:09;39.50;;;17.77;;
6858;SDS011;3468;42.824;23.240;2024-03-02T09:54:36;39.67;;;15.80;;
6858;SDS011;3468;42.824;23.240;2024-03-02T09:57:03;34.23;;;15.73;;
6858;SDS011;3468;42.824;23.240;2024-03-02T09:59:30;34.20;;;14.83;;
6858;SDS011;3468;42.824;23.240;2024-03-02T10:01:57;35.13;;;15.77;;
6858;SDS011;3468;42.824;23.240;2024-03-02T10:04:27;35.93;;;15.63;;
6858;SDS011;3468;42.824;23.240;2024-03-02T10:07:13;34.90;;;16.47;;
6858;SDS011;3468;42.824;23.240;2024-03-02T10:09:40;36.63;;;15.40;;
6858;SDS011;3468;42.824;23.240;2024-03-02T10:12:08;36.20;;;16.83;;
6858;SDS011;3468;42.824;23.240;2024-03-02T10:14:37;38.20;;;17.37;;
6858;SDS011;3468;42.824;23.240;2024-03-02T10:17:05;36.47;;;16.90;;
6858;SDS011;3468;42.824;23.240;2024-03-02T10:19:34;34.20;;;15.97;;
6858;SDS011;3468;42.824;23.240;2024-03-02T10:22:02;36.67;;;16.67;;
6858;SDS011;3468;42.824;23.240;2024-03-02T10:24:35;32.57;;;15.20;;
6858;SDS011;3468;42.824;23.240;2024-03-02T10:27:06;32.33;;;16.23;;
6858;SDS011;3468;42.824;23.240;2024-03-02T10:29:36;30.70;;;16.00;;
6858;SDS011;3468;42.824;23.240;2024-03-02T10:32:04;36.87;;;17.23;;
6858;SDS011;3468;42.824;23.240;2024-03-02T10:34:31;38.07;;;16.97;;
6858;SDS011;3468;42.824;23.240;2024-03-02T10:37:00;36.37;;;17.17;;
6858;SDS011;3468;42.824;23.240;2024-03-02T10:39:27;33.33;;;15.53;;
6858;SDS011;3468;42.824;23.240;2024-03-02T10:41:55;37.43;;;16.87;;
6858;SDS011;3468;42.824;23.240;2024-03-02T10:44:22;39.83;;;17.47;;
6858;SDS011;3468;42.824;23.240;2024-03-02T10:46:50;40.23;;;17.47;;
6858;SDS011;3468;42.824;23.240;2024-03-02T10:49:19;33.70;;;17.20;;
6858;SDS011;3468;42.824;23.240;2024-03-02T10:51:49;36.47;;;16.63;;
6858;SDS011;3468;42.824;23.240;2024-03-02T10:54:17;35.50;;;15.60;;
6858;SDS011;3468;42.824;23.240;2024-03-02T10:56:51;34.37;;;15.97;;
6858;SDS011;3468;42.824;23.240;2024-03-02T10:59:22;36.20;;;17.10;;
6858;SDS011;3468;42.824;23.240;2024-03-02T11:01:55;31.00;;;16.13;;
6858;SDS011;3468;42.824;23.240;2024-03-02T11:04:24;33.67;;;15.67;;
6858;SDS011;3468;42.824;23.240;2024-03-02T11:06:52;33.93;;;15.77;;
6858;SDS011;3468;42.824;23.240;2024-03-02T11:09:27;40.93;;;25.37;;
6858;SDS011;3468;42.824;23.240;2024-03-02T11:11:57;48.57;;;31.03;;
6858;SDS011;3468;42.824;23.240;2024-03-02T11:14:30;122.33;;;96.83;;
6858;SDS011;3468;42.824;23.240;2024-03-02T11:16:58;211.40;;;123.17;;
6858;SDS011;3468;42.824;23.240;2024-03-02T11:19:26;84.57;;;41.27;;
6858;SDS011;3468;42.824;23.240;2024-03-02T11:21:54;212.37;;;145.87;;
6858;SDS011;3468;42.824;23.240;2024-03-02T11:24:31;212.87;;;100.67;;
6858;SDS011;3468;42.824;23.240;2024-03-02T11:27:02;323.77;;;225.00;;
6858;SDS011;3468;42.824;23.240;2024-03-02T11:29:45;173.93;;;107.60;;
6858;SDS011;3468;42.824;23.240;2024-03-02T11:32:17;224.93;;;159.37;;
6858;SDS011;3468;42.824;23.240;2024-03-02T11:34:46;155.43;;;117.70;;
6858;SDS011;3468;42.824;23.240;2024-03-02T11:37:14;128.80;;;100.67;;
6858;SDS011;3468;42.824;23.240;2024-03-02T11:39:44;29.70;;;15.33;;
6858;SDS011;3468;42.824;23.240;2024-03-02T11:42:11;23.63;;;13.70;;
6858;SDS011;3468;42.824;23.240;2024-03-02T11:44:41;29.83;;;15.77;;
6858;SDS011;3468;42.824;23.240;2024-03-02T11:47:10;26.20;;;14.30;;
6858;SDS011;3468;42.824;23.240;2024-03-02T11:49:40;25.30;;;13.30;;
6858;SDS011;3468;42.824;23.240;2024-03-02T11:52:08;30.33;;;14.63;;
6858;SDS011;3468;42.824;23.240;2024-03-02T11:54:36;26.83;;;14.80;;
6858;SDS011;3468;42.824;23.240;2024-03-02T11:57:07;28.63;;;14.47;;
6858;SDS011;3468;42.824;23.240;2024-03-02T11:59:34;27.53;;;14.53;;
6858;SDS011;3468;42.824;23.240;2024-03-02T12:02:02;28.00;;;14.27;;
6858;SDS011;3468;42.824;23.240;2024-03-02T12:04:29;30.07;;;15.57;;
6858;SDS011;3468;42.824;23.240;2024-03-02T12:06:56;29.67;;;15.03;;
6858;SDS011;3468;42.824;23.240;2024-03-02T12:09:25;31.03;;;15.57;;
6858;SDS011;3468;42.824;23.240;2024-03-02T12:12:03;28.77;;;14.93;;
6858;SDS011;3468;42.824;23.240;2024-03-02T12:14:32;26.87;;;14.03;;
6858;SDS011;3468;42.824;23.240;2024-03-02T12:16:59;27.13;;;13.53;;
6858;SDS011;3468;42.824;23.240;2024-03-02T12:19:26;26.50;;;12.87;;
6858;SDS011;3468;42.824;23.240;2024-03-02T12:21:55;26.23;;;13.70;;
6858;SDS011;3468;42.824;23.240;2024-03-02T12:24:23;25.80;;;13.30;;
6858;SDS011;3468;42.824;23.240;2024-03-02T12:26:50;30.93;;;13.80;;
6858;SDS011;3468;42.824;23.240;2024-03-02T12:29:18;24.97;;;13.23;;
6858;SDS011;3468;42.824;23.240;2024-03-02T12:31:47;26.40;;;12.80;;
6858;SDS011;3468;42.824;23.240;2024-03-02T12:34:15;26.40;;;13.80;;
6858;SDS011;3468;42.824;23.240;2024-03-02T12:36:43;26.97;;;13.30;;
6858;SDS011;3468;42.824;23.240;2024-03-02T12:39:12;27.47;;;13.47;;
6858;SDS011;3468;42.824;23.240;2024-03-02T12:41:39;21.43;;;12.20;;
6858;SDS011;3468;42.824;23.240;2024-03-02T12:44:07;22.97;;;12.57;;
6858;SDS011;3468;42.824;23.240;2024-03-02T12:46:34;23.73;;;12.37;;
6858;SDS011;3468;42.824;23.240;2024-03-02T12:49:07;25.33;;;13.27;;
6858;SDS011;3468;42.824;23.240;2024-03-02T12:51:37;23.93;;;11.93;;
6858;SDS011;3468;42.824;23.240;2024-03-02T12:54:05;22.07;;;11.47;;
6858;SDS011;3468;42.824;23.240;2024-03-02T12:56:32;21.00;;;11.17;;
6858;SDS011;3468;42.824;23.240;2024-03-02T12:58:59;23.90;;;11.83;;
6858;SDS011;3468;42.824;23.240;2024-03-02T13:01:26;22.13;;;10.60;;
6858;SDS011;3468;42.824;23.240;2024-03-02T13:03:53;24.33;;;10.63;;
6858;SDS011;3468;42.824;23.240;2024-03-02T13:06:22;19.13;;;10.13;;
6858;SDS011;3468;42.824;23.240;2024-03-02T13:08:52;18.97;;;10.43;;
6858;SDS011;3468;42.824;23.240;2024-03-02T13:11:19;19.17;;;10.97;;
6858;SDS011;3468;42.824;23.240;2024-03-02T13:13:47;18.87;;;10.03;;
6858;SDS011;3468;42.824;23.240;2024-03-02T13:16:14;18.90;;;9.67;;
6858;SDS011;3468;42.824;23.240;2024-03-02T13:18:41;18.63;;;9.80;;
6858;SDS011;3468;42.824;23.240;2024-03-02T13:21:09;18.30;;;9.77;;
6858;SDS011;3468;42.824;23.240;2024-03-02T13:23:37;21.30;;;9.90;;
6858;SDS011;3468;42.824;23.240;2024-03-02T13:26:03;18.97;;;10.37;;
6858;SDS011;3468;42.824;23.240;2024-03-02T13:28:32;17.63;;;9.63;;
6858;SDS011;3468;42.824;23.240;2024-03-02T13:30:59;16.90;;;9.57;;
6858;SDS011;3468;42.824;23.240;2024-03-02T13:33:26;16.93;;;8.83;;
6858;SDS011;3468;42.824;23.240;2024-03-02T13:35:52;15.50;;;8.53;;
6858;SDS011;3468;42.824;23.240;2024-03-02T13:38:19;15.83;;;8.77;;
6858;SDS011;3468;42.824;23.240;2024-03-02T13:40:48;16.70;;;8.30;;
6858;SDS011;3468;42.824;23.240;2024-03-02T13:43:17;17.80;;;8.60;;
6858;SDS011;3468;42.824;23.240;2024-03-02T13:45:44;14.17;;;8.03;;
6858;SDS011;3468;42.824;23.240;2024-03-02T13:48:11;15.13;;;8.50;;
6858;SDS011;3468;42.824;23.240;2024-03-02T13:50:39;16.60;;;8.80;;
6858;SDS011;3468;42.824;23.240;2024-03-02T13:53:06;13.87;;;6.93;;
6858;SDS011;3468;42.824;23.240;2024-03-02T13:55:34;13.97;;;8.17;;
6858;SDS011;3468;42.824;23.240;2024-03-02T13:58:02;16.33;;;8.73;;
6858;SDS011;3468;42.824;23.240;2024-03-02T14:00:29;17.07;;;7.90;;
6858;SDS011;3468;42.824;23.240;2024-03-02T14:02:56;15.07;;;7.93;;
6858;SDS011;3468;42.824;23.240;2024-03-02T14:05:22;10.33;;;7.00;;
6858;SDS011;3468;42.824;23.240;2024-03-02T14:07:49;16.90;;;8.40;;
6858;SDS011;3468;42.824;23.240;2024-03-02T14:10:16;14.33;;;8.30;;
6858;SDS011;3468;42.824;23.240;2024-03-02T14:12:47;16.60;;;9.57;;
6858;SDS011;3468;42.824;23.240;2024-03-02T14:15:15;14.27;;;8.03;;
6858;SDS011;3468;42.824;23.240;2024-03-02T14:17:42;16.13;;;8.90;;
6858;SDS011;3468;42.824;23.240;2024-03-02T14:20:08;16.60;;;8.63;;
6858;SDS011;3468;42.824;23.240;2024-03-02T14:22:37;17.27;;;9.27;;
6858;SDS011;3468;42.824;23.240;2024-03-02T14:25:04;15.67;;;9.17;;
6858;SDS011;3468;42.824;23.240;2024-03-02T14:27:31;13.87;;;8.23;;
6858;SDS011;3468;42.824;23.240;2024-03-02T14:29:58;17.17;;;8.50;;
6858;SDS011;3468;42.824;23.240;2024-03-02T14:32:27;18.13;;;8.93;;
6858;SDS011;3468;42.824;23.240;2024-03-02T14:34:53;15.53;;;8.07;;
6858;SDS011;3468;42.824;23.240;2024-03-02T14:37:20;14.70;;;8.40;;
6858;SDS011;3468;42.824;23.240;2024-03-02T14:39:47;15.53;;;8.87;;